Weather at Coleman A. Young Municipal Airport

Public forecast

Using degrees Fahrenheit for public forecast. Weather courtesy of forecast.io.

Current aviation weather report (METAR) for Coleman A. Young Municipal Airport

2024/06/19 03:53 (retrieved 39 minutes ago)

KDET 190353Z 17005KT 10SM CLR 27/22 A3013 RMK AO2 SLP199 T02720222

Closest aviation forecast (TAF) to Coleman A. Young Municipal Airport

Forecast is more than 6 hours old.

Closest forecast is Selfridge Air National Guard Base Airport, 14.5 nm (26.8 km) NNE.

2024/06/18 19:33 (retrieved 9 hours ago)

TAF KMTC 181915Z 1819/2001 17010KT 9000 -SHRA SCT100 510072 QNH3003INS BECMG 1820/1821 19012G18KT 9999 NSW BKN250 510062 QNH3005INS BECMG 1907/1908 VRB06KT 9999 BKN150 QNH3013INS BECMG 1916/1917 19010KT 8000 -TSRA SCT040 BKN080CB QNH3013INS BECMG 1920/1921 20010KT 9000 -SHRA SCT040 BKN100 QNH3013INS TX31/1822Z TN23/1910Z LAST NO AMDS AFT 1903 NEXT 1911